Pagrindinis puslapis
METAR-TAF:

METAR-TAF

Oro uostai :

Bandirma, Turkija

platuma: 40-19N, ilguma: 027-58E, Aukštis: 51 m

METAR: trūkstamas

Laikas: 17:10 (14:10 UTC)

Prognozė

Ataskaita buvo paskelbta 3 valandos ir 30 minutes, ne 10:40 UTC
Prognozė galioja nuo 12 metu 12 UTC su 12 metu 21 UTC
Vėjas 7 kt iš Šiaurės/Šiaurės Rytų
Matomumas 10 km arba daugiau
nėra debesų žemiau 1500 m ir nėra kamuolinių lietaus debesų

TAF: LTBG 121040Z 1212/1221 03007KT CAVOK

Orai ataskaitas ir orų prognozės (METAR, TAF).

turimą stotys yra geltonos ir raudonos taškus žemėlapyje.

Perkelti pele per norėdami pamatyti stoties vardą.

Tada spustelėkite, norėdami matyti oro stebėjimo ir prognozės.

Norėdami pakeisti žemėlapį: spustelėkite ant žalios mygtukų su juodo kryžiaus žemyn,; žalią mygtuką su brūkšneliu, jei norite nutolinti; arba žalių rodyklių gretimoms žemėlapius.


METAR-TAF: